Time;durP1;ratioP1;P1;durP2;ratioP2;P2;SDS_P1;SDS_P2;PMS_P1;PMS_P2;Temp;Humidity;BMP_temperature;BMP_pressure;BME280_temperature;BME280_humidity;BME280_pressure;Samples;Min_cycle;Max_cycle;Signal;HPM_P1;HPM_P2
2023/05/19 00:01:53;;;;;;;3.80;1.83;;;;;;;;;;5071292;28;20223;-52
2023/05/19 00:04:20;;;;;;;2.60;1.80;;;;;;;;;;5082426;28;20226;-53
2023/05/19 00:06:49;;;;;;;3.00;2.20;;;;;;;;;;5077358;28;20230;-53
2023/05/19 00:09:16;;;;;;;6.10;2.10;;;;;;;;;;5078927;28;20235;-53
2023/05/19 00:11:43;;;;;;;4.00;2.67;;;;;;;;;;5079783;28;20234;-54
2023/05/19 00:14:10;;;;;;;4.22;2.40;;;;;;;;;;5071220;28;20233;-53
2023/05/19 00:16:37;;;;;;;3.25;1.77;;;;;;;;;;5093316;28;20231;-52
2023/05/19 00:19:08;;;;;;;3.92;1.83;;;;;;;;;;5082944;28;20341;-52
2023/05/19 00:21:36;;;;;;;4.47;2.28;;;;;;;;;;5080214;28;20232;-53
2023/05/19 00:24:03;;;;;;;3.53;2.58;;;;;;;;;;5079019;28;20726;-52
2023/05/19 00:26:29;;;;;;;3.13;1.80;;;;;;;;;;5076158;28;20231;-53
2023/05/19 00:28:56;;;;;;;2.30;1.63;;;;;;;;;;5078122;28;20266;-55
2023/05/19 00:31:22;;;;;;;3.42;1.67;;;;;;;;;;5075416;28;20229;-53
2023/05/19 00:33:50;;;;;;;3.35;2.55;;;;;;;;;;5079654;28;20305;-53
2023/05/19 00:36:19;;;;;;;6.88;2.85;;;;;;;;;;5079410;28;20242;-52
2023/05/19 00:38:45;;;;;;;3.10;2.65;;;;;;;;;;5074555;28;20231;-53
2023/05/19 00:41:12;;;;;;;4.13;1.92;;;;;;;;;;5081496;28;20235;-54
2023/05/19 00:43:39;;;;;;;8.25;2.40;;;;;;;;;;5074516;28;20262;-53
2023/05/19 00:46:06;;;;;;;4.57;2.17;;;;;;;;;;5078864;28;20223;-53
2023/05/19 00:48:32;;;;;;;7.63;2.60;;;;;;;;;;5077432;28;20231;-53
2023/05/19 00:51:03;;;;;;;2.57;1.93;;;;;;;;;;5075600;28;20276;-52
2023/05/19 00:53:31;;;;;;;7.53;2.37;;;;;;;;;;5078008;28;20321;-53
2023/05/19 00:55:58;;;;;;;5.20;2.30;;;;;;;;;;5076852;28;20241;-53
2023/05/19 00:58:28;;;;;;;8.00;2.67;;;;;;;;;;5079182;28;20276;-53
2023/05/19 01:00:54;;;;;;;3.83;2.50;;;;;;;;;;5074912;28;20655;-52
2023/05/19 01:03:21;;;;;;;3.85;1.83;;;;;;;;;;5079290;28;20778;-53
2023/05/19 01:05:48;;;;;;;4.10;2.37;;;;;;;;;;5081508;28;20620;-54
2023/05/19 01:08:15;;;;;;;6.30;2.10;;;;;;;;;;5080593;28;20228;-53
2023/05/19 01:10:43;;;;;;;5.67;2.03;;;;;;;;;;5081230;28;20627;-53
2023/05/19 01:13:09;;;;;;;7.40;2.65;;;;;;;;;;5076292;28;20774;-52
2023/05/19 01:15:39;;;;;;;4.83;1.63;;;;;;;;;;5081403;28;20700;-54
2023/05/19 01:18:09;;;;;;;4.53;2.20;;;;;;;;;;5081263;28;20299;-53
2023/05/19 01:20:39;;;;;;;3.73;2.17;;;;;;;;;;5077454;28;20245;-54
2023/05/19 01:23:13;;;;;;;8.53;2.27;;;;;;;;;;5078946;28;20254;-53
2023/05/19 01:25:59;;;;;;;3.67;1.80;;;;;;;;;;5078812;28;20616;-53
2023/05/19 01:28:40;;;;;;;4.97;2.27;;;;;;;;;;5076638;28;20222;-52
2023/05/19 01:31:10;;;;;;;3.97;2.07;;;;;;;;;;5076028;28;20321;-53
2023/05/19 01:33:38;;;;;;;3.77;2.17;;;;;;;;;;5083051;28;20313;-52
2023/05/19 01:36:05;;;;;;;6.17;2.90;;;;;;;;;;5083559;28;20236;-53
2023/05/19 01:38:33;;;;;;;6.57;2.33;;;;;;;;;;5086499;28;20716;-53
2023/05/19 01:41:00;;;;;;;2.23;2.03;;;;;;;;;;5076737;28;20241;-57
2023/05/19 01:43:27;;;;;;;2.30;1.77;;;;;;;;;;5079953;28;20254;-55
2023/05/19 01:45:54;;;;;;;4.43;2.10;;;;;;;;;;5081793;28;20227;-53
2023/05/19 01:48:23;;;;;;;3.67;2.17;;;;;;;;;;5078544;28;20223;-53
2023/05/19 01:50:49;;;;;;;5.87;1.87;;;;;;;;;;5079431;28;20235;-53
2023/05/19 01:53:16;;;;;;;3.40;1.97;;;;;;;;;;5065605;28;20232;-53
2023/05/19 01:55:44;;;;;;;5.67;2.13;;;;;;;;;;5076663;28;20231;-52
2023/05/19 01:58:15;;;;;;;7.30;2.03;;;;;;;;;;5075328;28;20231;-53
2023/05/19 02:00:49;;;;;;;5.77;2.50;;;;;;;;;;5073729;28;20235;-53
2023/05/19 02:03:21;;;;;;;6.40;2.83;;;;;;;;;;5075496;28;20244;-53
2023/05/19 02:05:54;;;;;;;3.97;2.17;;;;;;;;;;5078123;28;20253;-54
2023/05/19 02:08:24;;;;;;;5.27;2.40;;;;;;;;;;5078611;28;20332;-54
2023/05/19 02:10:54;;;;;;;1.80;1.70;;;;;;;;;;5077392;28;20230;-53
2023/05/19 02:13:21;;;;;;;4.73;2.80;;;;;;;;;;5077679;28;20227;-54
2023/05/19 02:15:48;;;;;;;4.90;2.47;;;;;;;;;;5079777;28;20313;-54
2023/05/19 02:18:16;;;;;;;3.00;1.90;;;;;;;;;;5076316;28;20223;-53
2023/05/19 02:20:43;;;;;;;3.77;2.37;;;;;;;;;;5072740;28;20227;-53
2023/05/19 02:23:11;;;;;;;4.43;2.73;;;;;;;;;;5079735;28;20806;-52
2023/05/19 02:25:38;;;;;;;4.03;2.00;;;;;;;;;;5079597;28;20231;-53
2023/05/19 02:28:05;;;;;;;2.60;2.23;;;;;;;;;;5077727;28;20908;-52
2023/05/19 02:30:31;;;;;;;3.73;1.83;;;;;;;;;;5078806;28;20238;-53
2023/05/19 02:32:59;;;;;;;6.20;2.23;;;;;;;;;;5071610;28;20345;-52
2023/05/19 02:35:26;;;;;;;6.53;2.53;;;;;;;;;;5085231;28;20226;-53
2023/05/19 02:37:53;;;;;;;3.30;1.90;;;;;;;;;;5076946;28;20229;-53
2023/05/19 02:40:21;;;;;;;6.80;2.70;;;;;;;;;;5081303;28;20268;-53
2023/05/19 02:42:48;;;;;;;6.07;2.93;;;;;;;;;;5077873;28;20253;-53
2023/05/19 02:45:14;;;;;;;6.07;2.50;;;;;;;;;;5077956;28;20251;-53
2023/05/19 02:47:41;;;;;;;6.50;2.77;;;;;;;;;;5075323;28;20225;-55
2023/05/19 02:50:08;;;;;;;4.07;2.27;;;;;;;;;;5079405;28;20740;-53
2023/05/19 02:52:35;;;;;;;2.63;2.43;;;;;;;;;;5079286;28;20231;-52
2023/05/19 02:55:01;;;;;;;6.63;3.37;;;;;;;;;;5084341;28;20333;-52
2023/05/19 02:57:31;;;;;;;8.60;2.80;;;;;;;;;;5081522;27;20326;-52
2023/05/19 02:59:58;;;;;;;2.57;2.20;;;;;;;;;;5079358;28;20688;-52
2023/05/19 03:02:25;;;;;;;5.50;2.57;;;;;;;;;;5084059;28;20238;-53
2023/05/19 03:04:52;;;;;;;3.33;2.23;;;;;;;;;;5075694;28;20253;-55
2023/05/19 03:07:23;;;;;;;5.17;2.67;;;;;;;;;;5084354;28;20253;-53
2023/05/19 03:09:51;;;;;;;7.23;2.70;;;;;;;;;;5081842;28;20230;-52
2023/05/19 03:12:18;;;;;;;5.80;2.83;;;;;;;;;;5075699;28;20238;-53
2023/05/19 03:14:46;;;;;;;4.97;2.23;;;;;;;;;;5074514;28;20237;-53
2023/05/19 03:17:12;;;;;;;4.50;2.10;;;;;;;;;;5081710;28;20235;-53
2023/05/19 03:19:40;;;;;;;4.43;1.93;;;;;;;;;;5081371;28;20252;-53
2023/05/19 03:22:07;;;;;;;5.13;2.30;;;;;;;;;;5080572;28;20231;-53
2023/05/19 03:24:33;;;;;;;3.83;1.90;;;;;;;;;;5073288;28;20269;-54
2023/05/19 03:27:01;;;;;;;4.80;2.77;;;;;;;;;;5079454;28;20230;-53
2023/05/19 03:29:27;;;;;;;5.20;2.47;;;;;;;;;;5082688;28;20230;-52
2023/05/19 03:31:55;;;;;;;3.70;2.00;;;;;;;;;;5080394;28;20258;-52
2023/05/19 03:34:22;;;;;;;7.63;2.13;;;;;;;;;;5082823;27;20230;-54
2023/05/19 03:36:49;;;;;;;6.60;2.37;;;;;;;;;;5080516;28;20283;-53
2023/05/19 03:39:16;;;;;;;4.53;2.33;;;;;;;;;;5075356;28;20312;-52
2023/05/19 03:41:42;;;;;;;6.23;2.33;;;;;;;;;;5082021;28;20249;-53
2023/05/19 03:44:09;;;;;;;7.77;2.43;;;;;;;;;;5081578;28;20234;-53
2023/05/19 03:46:36;;;;;;;4.67;2.43;;;;;;;;;;5078801;28;20237;-53
2023/05/19 03:49:04;;;;;;;3.60;2.00;;;;;;;;;;5078914;28;20242;-53
2023/05/19 03:51:30;;;;;;;5.93;2.33;;;;;;;;;;5080198;28;20752;-53
2023/05/19 03:53:57;;;;;;;3.83;2.57;;;;;;;;;;5085850;28;20238;-56
2023/05/19 03:56:26;;;;;;;3.47;2.10;;;;;;;;;;5078069;28;20226;-53
2023/05/19 03:58:53;;;;;;;7.40;3.17;;;;;;;;;;5087172;28;20226;-53
2023/05/19 04:01:23;;;;;;;4.63;2.40;;;;;;;;;;5079434;28;20247;-53
2023/05/19 04:03:49;;;;;;;4.03;2.33;;;;;;;;;;5082130;28;20229;-52
2023/05/19 04:06:19;;;;;;;4.03;2.10;;;;;;;;;;5082891;28;20715;-53
2023/05/19 04:08:45;;;;;;;5.53;2.50;;;;;;;;;;5077467;28;20291;-54
2023/05/19 04:11:12;;;;;;;4.80;1.90;;;;;;;;;;5080080;28;20324;-53
2023/05/19 04:13:38;;;;;;;3.87;2.17;;;;;;;;;;5078094;28;20237;-53
2023/05/19 04:16:06;;;;;;;3.77;2.33;;;;;;;;;;5080109;28;20234;-52
2023/05/19 04:18:32;;;;;;;5.00;2.50;;;;;;;;;;5078502;28;20227;-52
2023/05/19 04:20:59;;;;;;;2.00;1.80;;;;;;;;;;5077368;27;20227;-54
2023/05/19 04:23:27;;;;;;;7.33;2.73;;;;;;;;;;5073367;28;20235;-53
2023/05/19 04:25:55;;;;;;;2.73;1.60;;;;;;;;;;5074602;28;20300;-53
2023/05/19 04:28:22;;;;;;;4.37;2.27;;;;;;;;;;5082443;28;20310;-52
2023/05/19 04:30:49;;;;;;;4.45;2.17;;;;;;;;;;5086158;28;20235;-52
2023/05/19 04:33:16;;;;;;;3.47;1.88;;;;;;;;;;5095929;28;20313;-55
2023/05/19 04:35:43;;;;;;;4.60;2.30;;;;;;;;;;5094767;28;20708;-54
2023/05/19 04:38:10;;;;;;;6.30;2.07;;;;;;;;;;5081365;28;20234;-57
2023/05/19 04:40:41;;;;;;;2.50;1.70;;;;;;;;;;5079897;28;20226;-53
2023/05/19 04:43:08;;;;;;;5.33;1.87;;;;;;;;;;5078165;28;20235;-52
2023/05/19 04:45:36;;;;;;;4.17;2.37;;;;;;;;;;5082317;28;20234;-54
2023/05/19 04:48:03;;;;;;;3.47;2.43;;;;;;;;;;5079595;28;20226;-53
2023/05/19 04:50:31;;;;;;;2.00;1.80;;;;;;;;;;5078093;28;20234;-55
2023/05/19 04:52:58;;;;;;;6.47;1.97;;;;;;;;;;5079572;28;20267;-54
2023/05/19 04:55:25;;;;;;;3.03;1.80;;;;;;;;;;5081597;28;20280;-53
2023/05/19 04:57:53;;;;;;;5.30;2.20;;;;;;;;;;5079777;28;20233;-53
2023/05/19 05:00:20;;;;;;;6.15;2.38;;;;;;;;;;5079659;28;20237;-54
2023/05/19 05:02:47;;;;;;;8.40;2.87;;;;;;;;;;5080294;28;20233;-52
2023/05/19 05:05:14;;;;;;;6.43;2.13;;;;;;;;;;5080191;28;20307;-54
2023/05/19 05:07:41;;;;;;;5.40;2.23;;;;;;;;;;5075210;28;20261;-53
2023/05/19 05:10:08;;;;;;;3.20;1.88;;;;;;;;;;5079284;28;20302;-53
2023/05/19 05:12:35;;;;;;;4.93;2.42;;;;;;;;;;5080432;28;20246;-53
2023/05/19 05:15:05;;;;;;;4.30;2.17;;;;;;;;;;5080091;28;20271;-53
2023/05/19 05:17:32;;;;;;;3.20;1.85;;;;;;;;;;5075595;28;20234;-54
2023/05/19 05:19:59;;;;;;;3.95;2.08;;;;;;;;;;5075322;28;20257;-52
2023/05/19 05:22:26;;;;;;;2.28;1.80;;;;;;;;;;5079407;28;20738;-54
2023/05/19 05:24:53;;;;;;;4.20;2.22;;;;;;;;;;5078369;28;20227;-54
2023/05/19 05:27:20;;;;;;;3.45;2.40;;;;;;;;;;5080515;28;20254;-53
2023/05/19 05:29:46;;;;;;;4.82;1.95;;;;;;;;;;5081438;28;20257;-54
2023/05/19 05:32:16;;;;;;;4.30;2.10;;;;;;;;;;5080087;28;20292;-53
2023/05/19 05:34:42;;;;;;;4.10;2.15;;;;;;;;;;5076289;28;20235;-54
2023/05/19 05:37:09;;;;;;;2.78;2.08;;;;;;;;;;5081919;28;20582;-52
2023/05/19 05:39:36;;;;;;;4.53;3.10;;;;;;;;;;5075073;28;20254;-53
2023/05/19 05:42:02;;;;;;;6.95;3.00;;;;;;;;;;5079676;28;20271;-53
2023/05/19 05:44:29;;;;;;;3.63;1.90;;;;;;;;;;5078367;28;20261;-53
2023/05/19 05:46:56;;;;;;;3.63;2.30;;;;;;;;;;5069425;28;20242;-53
2023/05/19 05:49:24;;;;;;;7.05;2.83;;;;;;;;;;5084498;28;20226;-53
2023/05/19 05:51:51;;;;;;;3.88;1.90;;;;;;;;;;5081577;28;20755;-52
2023/05/19 05:54:18;;;;;;;3.90;2.20;;;;;;;;;;5071076;28;20234;-53
2023/05/19 05:56:46;;;;;;;8.27;2.47;;;;;;;;;;5071824;28;20287;-54
2023/05/19 05:59:13;;;;;;;5.63;2.75;;;;;;;;;;5081346;28;20235;-59
2023/05/19 06:01:40;;;;;;;3.47;2.00;;;;;;;;;;5082225;28;20230;-52
2023/05/19 06:04:07;;;;;;;2.40;1.95;;;;;;;;;;5073842;28;20231;-53
2023/05/19 06:06:36;;;;;;;7.43;2.97;;;;;;;;;;5071017;28;20235;-53
2023/05/19 06:09:03;;;;;;;3.97;2.30;;;;;;;;;;5082290;28;20270;-52
2023/05/19 06:11:30;;;;;;;2.75;2.10;;;;;;;;;;5086285;28;21092;-53
2023/05/19 06:13:57;;;;;;;5.10;3.40;;;;;;;;;;5084793;28;20257;-53
2023/05/19 06:16:23;;;;;;;3.15;2.25;;;;;;;;;;5083689;28;20786;-54
2023/05/19 06:18:50;;;;;;;3.45;2.40;;;;;;;;;;5085464;28;20257;-53
2023/05/19 06:21:17;;;;;;;7.43;2.63;;;;;;;;;;5083847;28;20234;-52
2023/05/19 06:23:45;;;;;;;3.10;2.38;;;;;;;;;;5076055;28;20384;-53
2023/05/19 06:26:11;;;;;;;2.90;2.05;;;;;;;;;;5088434;28;20230;-53
2023/05/19 06:28:38;;;;;;;2.75;2.05;;;;;;;;;;5083890;28;20235;-58
2023/05/19 06:31:05;;;;;;;3.47;2.35;;;;;;;;;;5084340;28;20262;-55
2023/05/19 06:33:31;;;;;;;3.58;2.22;;;;;;;;;;5083469;28;20243;-54
2023/05/19 06:35:58;;;;;;;4.43;2.33;;;;;;;;;;5082757;28;20230;-52
2023/05/19 06:38:25;;;;;;;3.90;2.20;;;;;;;;;;5085064;28;20230;-53
2023/05/19 06:40:53;;;;;;;5.07;2.35;;;;;;;;;;5082182;28;20236;-52
2023/05/19 06:43:19;;;;;;;2.15;1.95;;;;;;;;;;5079997;28;20708;-54
2023/05/19 06:45:46;;;;;;;5.35;2.80;;;;;;;;;;5081329;28;20234;-53
2023/05/19 06:48:13;;;;;;;2.63;2.10;;;;;;;;;;5081316;28;20230;-53
2023/05/19 06:50:39;;;;;;;2.80;2.08;;;;;;;;;;5082221;28;20286;-53
2023/05/19 06:53:06;;;;;;;3.47;1.92;;;;;;;;;;5081023;28;20234;-53
2023/05/19 06:55:33;;;;;;;7.20;2.22;;;;;;;;;;5081653;28;20726;-53
2023/05/19 06:58:01;;;;;;;3.80;2.50;;;;;;;;;;5078105;28;20250;-52
2023/05/19 07:00:27;;;;;;;4.00;2.72;;;;;;;;;;5077757;28;20813;-53
2023/05/19 07:02:54;;;;;;;5.50;2.45;;;;;;;;;;5080972;28;20789;-53
2023/05/19 07:05:21;;;;;;;4.05;2.13;;;;;;;;;;5084200;28;20230;-52
2023/05/19 07:07:47;;;;;;;3.53;3.08;;;;;;;;;;5083519;28;20254;-52
2023/05/19 07:10:14;;;;;;;3.28;2.42;;;;;;;;;;5080328;28;20230;-52
2023/05/19 07:12:40;;;;;;;3.92;2.25;;;;;;;;;;5083023;28;20238;-54
2023/05/19 07:15:09;;;;;;;4.00;2.40;;;;;;;;;;5080598;28;20226;-52
2023/05/19 07:17:35;;;;;;;2.60;2.17;;;;;;;;;;5075262;28;20690;-53
2023/05/19 07:20:05;;;;;;;6.15;2.70;;;;;;;;;;5074078;28;20315;-52
2023/05/19 07:22:33;;;;;;;5.05;2.40;;;;;;;;;;5078049;28;20322;-52
2023/05/19 07:25:00;;;;;;;3.40;2.35;;;;;;;;;;5078388;28;20230;-53
2023/05/19 07:27:27;;;;;;;3.70;1.95;;;;;;;;;;5081923;28;20234;-52
2023/05/19 07:29:54;;;;;;;3.55;2.40;;;;;;;;;;5082263;28;20417;-52
2023/05/19 07:32:22;;;;;;;3.35;2.25;;;;;;;;;;5078194;28;20262;-53
2023/05/19 07:34:49;;;;;;;3.58;2.35;;;;;;;;;;5081602;28;20936;-53
2023/05/19 07:37:15;;;;;;;3.80;2.00;;;;;;;;;;5081657;28;20681;-53
2023/05/19 07:39:42;;;;;;;3.33;1.90;;;;;;;;;;5082264;28;20317;-53
2023/05/19 07:42:09;;;;;;;3.28;2.45;;;;;;;;;;5078643;28;20241;-53
2023/05/19 07:44:36;;;;;;;4.15;2.72;;;;;;;;;;5080409;28;20279;-53
2023/05/19 07:47:03;;;;;;;2.80;2.28;;;;;;;;;;5081662;28;20329;-53
2023/05/19 07:49:30;;;;;;;5.47;2.50;;;;;;;;;;5077208;28;20301;-53
2023/05/19 07:51:57;;;;;;;2.80;2.45;;;;;;;;;;5075512;28;21916;-54
2023/05/19 07:54:24;;;;;;;4.35;2.50;;;;;;;;;;5081883;28;20223;-52
2023/05/19 07:56:50;;;;;;;6.63;2.60;;;;;;;;;;5079428;28;21026;-53
2023/05/19 07:59:17;;;;;;;4.22;2.80;;;;;;;;;;5082015;28;20223;-53
2023/05/19 08:01:44;;;;;;;3.33;2.13;;;;;;;;;;5079417;28;20321;-53
2023/05/19 08:04:11;;;;;;;5.72;2.60;;;;;;;;;;5081914;28;20237;-53
2023/05/19 08:06:41;;;;;;;4.03;2.03;;;;;;;;;;5078955;28;20258;-53
2023/05/19 08:09:08;;;;;;;2.90;2.58;;;;;;;;;;5080712;28;20305;-53
2023/05/19 08:11:35;;;;;;;2.15;1.92;;;;;;;;;;5076915;28;20231;-53
2023/05/19 08:14:02;;;;;;;2.78;2.55;;;;;;;;;;5077095;28;20223;-53
2023/05/19 08:16:29;;;;;;;2.90;2.42;;;;;;;;;;5077955;28;20234;-54
2023/05/19 08:18:55;;;;;;;2.97;2.67;;;;;;;;;;5077549;28;20218;-53
2023/05/19 08:21:22;;;;;;;4.60;2.47;;;;;;;;;;5083282;28;20528;-53
2023/05/19 08:23:50;;;;;;;4.00;2.42;;;;;;;;;;5071433;28;20231;-53
2023/05/19 08:26:17;;;;;;;4.55;2.95;;;;;;;;;;5070485;28;20235;-53
2023/05/19 08:28:44;;;;;;;4.38;2.85;;;;;;;;;;5076729;28;20234;-53
2023/05/19 08:31:10;;;;;;;3.83;2.47;;;;;;;;;;5083081;28;20231;-52
2023/05/19 08:33:37;;;;;;;3.50;2.33;;;;;;;;;;5079622;28;20245;-52
2023/05/19 08:36:04;;;;;;;5.38;2.75;;;;;;;;;;5085953;28;20234;-55
2023/05/19 08:38:31;;;;;;;3.55;2.67;;;;;;;;;;5084707;28;20306;-52
2023/05/19 08:40:59;;;;;;;2.38;2.17;;;;;;;;;;5095547;28;20249;-53
2023/05/19 08:43:26;;;;;;;4.88;2.30;;;;;;;;;;5087930;28;20322;-52
2023/05/19 08:45:53;;;;;;;2.90;2.20;;;;;;;;;;5076762;28;20238;-53
2023/05/19 08:48:20;;;;;;;3.30;2.50;;;;;;;;;;5081771;28;20256;-53
2023/05/19 08:50:50;;;;;;;2.10;1.92;;;;;;;;;;5077745;28;20250;-52
2023/05/19 08:53:21;;;;;;;2.78;2.50;;;;;;;;;;5075607;28;20262;-53
2023/05/19 08:55:52;;;;;;;3.42;2.00;;;;;;;;;;5083678;28;20619;-52
2023/05/19 08:58:21;;;;;;;5.28;2.00;;;;;;;;;;5066928;28;20234;-53
2023/05/19 09:00:48;;;;;;;3.58;2.20;;;;;;;;;;5076209;28;20255;-53
2023/05/19 09:03:16;;;;;;;3.83;2.30;;;;;;;;;;5081727;28;20279;-52
2023/05/19 09:05:42;;;;;;;2.88;2.17;;;;;;;;;;5082135;28;20333;-53
2023/05/19 09:08:09;;;;;;;5.03;2.30;;;;;;;;;;5083295;28;20252;-52
2023/05/19 09:10:35;;;;;;;4.00;2.83;;;;;;;;;;5080857;28;20837;-52
2023/05/19 09:13:01;;;;;;;2.03;1.80;;;;;;;;;;5080708;28;20257;-53
2023/05/19 09:15:31;;;;;;;3.38;1.70;;;;;;;;;;5074739;28;20739;-53
2023/05/19 09:18:06;;;;;;;5.40;1.95;;;;;;;;;;5076967;28;20682;-53
2023/05/19 09:20:32;;;;;;;2.15;1.67;;;;;;;;;;5080367;28;20238;-53
2023/05/19 09:22:59;;;;;;;1.60;1.50;;;;;;;;;;5078441;28;20600;-51
2023/05/19 09:25:26;;;;;;;4.20;1.52;;;;;;;;;;5082010;28;20233;-52
2023/05/19 09:27:54;;;;;;;2.90;1.10;;;;;;;;;;5081292;28;20238;-52
2023/05/19 09:30:20;;;;;;;1.25;1.15;;;;;;;;;;5070754;28;20226;-52
2023/05/19 09:32:48;;;;;;;1.63;1.25;;;;;;;;;;5079057;28;20245;-53
2023/05/19 09:35:16;;;;;;;2.10;1.58;;;;;;;;;;5080810;28;20233;-52
2023/05/19 09:37:42;;;;;;;1.70;1.60;;;;;;;;;;5083195;28;20234;-53
2023/05/19 09:40:09;;;;;;;1.45;1.20;;;;;;;;;;5081087;28;20227;-53
2023/05/19 09:42:37;;;;;;;6.43;1.67;;;;;;;;;;5080627;28;20230;-52
2023/05/19 09:45:03;;;;;;;2.88;1.70;;;;;;;;;;5085477;28;20253;-54
2023/05/19 09:47:33;;;;;;;2.03;1.50;;;;;;;;;;5076883;28;20618;-52
2023/05/19 09:50:00;;;;;;;1.80;1.50;;;;;;;;;;5087157;28;20320;-54
2023/05/19 09:52:27;;;;;;;2.95;1.40;;;;;;;;;;5077822;28;20233;-53
2023/05/19 09:54:54;;;;;;;1.08;1.08;;;;;;;;;;5082072;28;20222;-52
2023/05/19 09:57:25;;;;;;;1.90;1.15;;;;;;;;;;5083058;28;20247;-51
2023/05/19 09:59:52;;;;;;;1.52;1.25;;;;;;;;;;5087007;28;20787;-55
2023/05/19 10:02:20;;;;;;;1.45;1.35;;;;;;;;;;5081236;28;20708;-53
2023/05/19 10:04:48;;;;;;;1.05;1.00;;;;;;;;;;5078265;28;20230;-52
2023/05/19 10:07:16;;;;;;;3.55;1.10;;;;;;;;;;5080472;28;20230;-52
2023/05/19 10:09:43;;;;;;;2.45;1.55;;;;;;;;;;5080943;28;20230;-53
2023/05/19 10:12:10;;;;;;;4.38;1.63;;;;;;;;;;5088106;28;20238;-53
2023/05/19 10:14:37;;;;;;;1.17;1.10;;;;;;;;;;5084183;28;20279;-52
2023/05/19 10:17:04;;;;;;;1.70;1.48;;;;;;;;;;5080029;28;20655;-52
2023/05/19 10:19:30;;;;;;;2.22;1.40;;;;;;;;;;5081803;28;20235;-53
2023/05/19 10:21:56;;;;;;;1.58;1.48;;;;;;;;;;5077605;28;20226;-53
2023/05/19 10:24:24;;;;;;;3.50;1.40;;;;;;;;;;5081551;27;20226;-54
2023/05/19 10:26:53;;;;;;;2.25;1.55;;;;;;;;;;5076356;28;20304;-52
2023/05/19 10:29:21;;;;;;;1.75;1.27;;;;;;;;;;5078236;28;20313;-52
2023/05/19 10:31:50;;;;;;;2.95;1.20;;;;;;;;;;5081411;28;20238;-53
2023/05/19 10:34:23;;;;;;;1.63;1.52;;;;;;;;;;5084194;28;20235;-54
2023/05/19 10:36:52;;;;;;;1.75;1.52;;;;;;;;;;5080842;28;20238;-53
2023/05/19 10:39:21;;;;;;;1.17;1.05;;;;;;;;;;5082545;28;20576;-52
2023/05/19 10:41:51;;;;;;;3.08;1.50;;;;;;;;;;5077625;28;20226;-52
2023/05/19 10:44:23;;;;;;;1.77;1.40;;;;;;;;;;5082465;28;20226;-54
2023/05/19 10:46:49;;;;;;;2.00;1.38;;;;;;;;;;5081108;28;20230;-52
2023/05/19 10:49:20;;;;;;;1.40;1.30;;;;;;;;;;5078632;28;20292;-53
2023/05/19 10:51:46;;;;;;;1.45;1.30;;;;;;;;;;5083256;28;20235;-52
2023/05/19 10:54:15;;;;;;;1.67;1.58;;;;;;;;;;5082393;28;20731;-53
2023/05/19 10:56:46;;;;;;;2.95;1.48;;;;;;;;;;5083925;28;20230;-52
2023/05/19 10:59:27;;;;;;;1.30;1.15;;;;;;;;;;5086332;28;20257;-53
2023/05/19 11:01:55;;;;;;;2.20;1.70;;;;;;;;;;5087453;28;20337;-52
2023/05/19 11:04:38;;;;;;;2.50;1.20;;;;;;;;;;5088428;28;20284;-56
2023/05/19 11:07:05;;;;;;;2.00;1.30;;;;;;;;;;5087227;28;20234;-53
2023/05/19 11:09:32;;;;;;;3.38;1.40;;;;;;;;;;5089480;28;20234;-51
2023/05/19 11:12:02;;;;;;;2.28;1.30;;;;;;;;;;5087930;28;20234;-51
2023/05/19 11:14:30;;;;;;;4.93;1.20;;;;;;;;;;5074340;28;20241;-52
2023/05/19 11:16:59;;;;;;;1.30;1.20;;;;;;;;;;5081112;28;20239;-52
2023/05/19 11:19:26;;;;;;;3.60;1.20;;;;;;;;;;5079483;28;20251;-52
2023/05/19 11:21:53;;;;;;;2.00;1.23;;;;;;;;;;5078407;28;20377;-53
2023/05/19 11:24:36;;;;;;;2.17;1.30;;;;;;;;;;5073871;28;20899;-52
2023/05/19 11:27:19;;;;;;;1.10;1.00;;;;;;;;;;5076762;28;20231;-53
2023/05/19 11:29:45;;;;;;;1.85;0.93;;;;;;;;;;5072590;28;20306;-53
2023/05/19 11:32:13;;;;;;;1.10;1.05;;;;;;;;;;5082376;28;21910;-52
2023/05/19 11:34:40;;;;;;;1.30;1.15;;;;;;;;;;5084896;28;20234;-52
2023/05/19 11:37:07;;;;;;;1.33;1.23;;;;;;;;;;5081711;28;20285;-52
2023/05/19 11:39:33;;;;;;;2.40;1.42;;;;;;;;;;5085936;28;20241;-52
2023/05/19 11:42:00;;;;;;;4.72;1.90;;;;;;;;;;5078140;28;20235;-52
2023/05/19 11:44:26;;;;;;;1.33;1.13;;;;;;;;;;5084965;28;20230;-52
2023/05/19 11:46:53;;;;;;;2.42;1.35;;;;;;;;;;5081599;28;20738;-52
2023/05/19 11:49:20;;;;;;;1.90;1.20;;;;;;;;;;5076373;28;20234;-52
2023/05/19 11:51:47;;;;;;;4.57;1.70;;;;;;;;;;5079994;28;20321;-53
2023/05/19 11:54:13;;;;;;;2.58;1.55;;;;;;;;;;5078087;28;20317;-56
2023/05/19 11:56:40;;;;;;;2.40;1.20;;;;;;;;;;5079728;28;20234;-53
2023/05/19 11:59:06;;;;;;;2.78;1.35;;;;;;;;;;5081125;28;20237;-52
2023/05/19 12:01:33;;;;;;;2.15;1.10;;;;;;;;;;5076673;28;20679;-52
2023/05/19 12:04:00;;;;;;;3.88;1.50;;;;;;;;;;5079047;28;20230;-53
2023/05/19 12:06:28;;;;;;;2.20;1.38;;;;;;;;;;5079186;28;20230;-51
2023/05/19 12:08:55;;;;;;;1.58;1.30;;;;;;;;;;5078528;28;20230;-53
2023/05/19 12:11:21;;;;;;;1.90;1.30;;;;;;;;;;5073647;28;20511;-53
2023/05/19 12:13:49;;;;;;;1.33;1.23;;;;;;;;;;5082133;28;20230;-53
2023/05/19 12:16:16;;;;;;;7.70;1.65;;;;;;;;;;5075253;28;20226;-53
2023/05/19 12:18:42;;;;;;;1.60;1.40;;;;;;;;;;5082058;28;20238;-52
2023/05/19 12:21:08;;;;;;;1.38;1.27;;;;;;;;;;5077455;28;20238;-55
2023/05/19 12:23:36;;;;;;;2.33;1.33;;;;;;;;;;5078038;28;20317;-52
2023/05/19 12:26:03;;;;;;;1.50;1.40;;;;;;;;;;5077830;28;20614;-53
2023/05/19 12:28:29;;;;;;;2.42;1.40;;;;;;;;;;5076000;28;20723;-52
2023/05/19 12:30:57;;;;;;;2.83;1.33;;;;;;;;;;5075510;28;20223;-53
2023/05/19 12:33:24;;;;;;;1.92;1.70;;;;;;;;;;5080852;28;20261;-53
2023/05/19 12:35:51;;;;;;;1.58;1.33;;;;;;;;;;5076278;28;20228;-53
2023/05/19 12:38:19;;;;;;;3.38;1.60;;;;;;;;;;5073275;28;20652;-54
2023/05/19 12:40:48;;;;;;;3.60;1.08;;;;;;;;;;5079780;28;20577;-53
2023/05/19 12:43:21;;;;;;;1.38;0.98;;;;;;;;;;5075449;28;20227;-53
2023/05/19 12:45:47;;;;;;;1.42;1.33;;;;;;;;;;5076642;28;20350;-53
2023/05/19 12:48:15;;;;;;;4.47;1.30;;;;;;;;;;5079728;28;20249;-56
2023/05/19 12:50:42;;;;;;;1.45;1.35;;;;;;;;;;5079643;28;20238;-53
2023/05/19 12:53:10;;;;;;;2.88;1.20;;;;;;;;;;5076238;28;20231;-53
2023/05/19 12:55:38;;;;;;;1.80;1.17;;;;;;;;;;5077055;28;20298;-52
2023/05/19 12:58:07;;;;;;;1.15;1.15;;;;;;;;;;5080144;28;20233;-53
2023/05/19 13:00:34;;;;;;;2.30;1.48;;;;;;;;;;5082130;28;20226;-54
2023/05/19 13:03:03;;;;;;;3.38;1.55;;;;;;;;;;5078204;28;20584;-52
2023/05/19 13:05:29;;;;;;;7.00;1.92;;;;;;;;;;5083822;28;20712;-53
2023/05/19 13:07:56;;;;;;;3.78;1.90;;;;;;;;;;5081280;28;20226;-52
2023/05/19 13:10:25;;;;;;;2.30;1.70;;;;;;;;;;5088953;28;20345;-53
2023/05/19 13:12:52;;;;;;;2.88;1.83;;;;;;;;;;5081759;28;20234;-54
2023/05/19 13:15:20;;;;;;;2.45;1.83;;;;;;;;;;5086239;28;20250;-53
2023/05/19 13:17:46;;;;;;;1.50;1.40;;;;;;;;;;5083915;28;20234;-53
2023/05/19 13:20:14;;;;;;;1.95;1.50;;;;;;;;;;5083020;28;20325;-52
2023/05/19 13:22:41;;;;;;;2.78;1.70;;;;;;;;;;5073585;28;20535;-53
2023/05/19 13:25:07;;;;;;;1.38;1.17;;;;;;;;;;5082717;28;20317;-52
2023/05/19 13:27:34;;;;;;;1.90;1.40;;;;;;;;;;5081210;28;20272;-52
2023/05/19 13:30:02;;;;;;;1.48;1.38;;;;;;;;;;5082701;28;20511;-51
2023/05/19 13:32:30;;;;;;;2.15;1.77;;;;;;;;;;5082680;28;20234;-52
2023/05/19 13:34:57;;;;;;;2.85;1.70;;;;;;;;;;5083118;28;20231;-52
2023/05/19 13:37:23;;;;;;;1.65;1.52;;;;;;;;;;5081794;28;20230;-53
2023/05/19 13:39:50;;;;;;;3.15;1.67;;;;;;;;;;5081051;28;20831;-53
2023/05/19 13:42:16;;;;;;;1.42;1.15;;;;;;;;;;5082635;28;20288;-51
2023/05/19 13:44:43;;;;;;;2.70;1.50;;;;;;;;;;5077373;28;20617;-53
2023/05/19 13:47:09;;;;;;;2.30;1.63;;;;;;;;;;5083272;28;20766;-53
2023/05/19 13:49:37;;;;;;;2.28;1.48;;;;;;;;;;5079909;28;20311;-54
2023/05/19 13:52:03;;;;;;;3.17;1.73;;;;;;;;;;5080372;28;20241;-53
2023/05/19 13:54:30;;;;;;;2.47;1.88;;;;;;;;;;5087959;28;20317;-51
2023/05/19 13:56:57;;;;;;;2.33;1.35;;;;;;;;;;5077491;28;20227;-52
2023/05/19 13:59:23;;;;;;;3.25;1.50;;;;;;;;;;5081938;28;20279;-53
2023/05/19 14:01:49;;;;;;;2.70;1.65;;;;;;;;;;5081105;28;20276;-53
2023/05/19 14:04:17;;;;;;;5.88;1.70;;;;;;;;;;5084922;28;20309;-52
2023/05/19 14:06:45;;;;;;;2.28;1.80;;;;;;;;;;5084476;28;20241;-53
2023/05/19 14:09:13;;;;;;;1.92;1.77;;;;;;;;;;5087792;28;20230;-52
2023/05/19 14:11:40;;;;;;;3.15;2.15;;;;;;;;;;5088742;28;20314;-52
2023/05/19 14:14:06;;;;;;;2.35;1.75;;;;;;;;;;5090554;28;20242;-54
2023/05/19 14:16:36;;;;;;;2.20;2.00;;;;;;;;;;5079421;28;20235;-52
2023/05/19 14:19:02;;;;;;;1.67;1.50;;;;;;;;;;5082329;28;20718;-52
2023/05/19 14:21:28;;;;;;;2.00;1.80;;;;;;;;;;5079332;28;20235;-55
2023/05/19 14:23:56;;;;;;;2.38;1.98;;;;;;;;;;5080307;28;20321;-52
2023/05/19 14:26:23;;;;;;;2.40;1.75;;;;;;;;;;5076341;28;20221;-51
2023/05/19 14:28:50;;;;;;;2.17;2.05;;;;;;;;;;5078211;28;20760;-52
2023/05/19 14:31:16;;;;;;;2.78;2.30;;;;;;;;;;5083533;28;20222;-52
2023/05/19 14:33:43;;;;;;;2.92;2.10;;;;;;;;;;5085572;28;20828;-53
2023/05/19 14:36:09;;;;;;;4.10;2.42;;;;;;;;;;5079536;28;20234;-52
2023/05/19 14:38:36;;;;;;;2.50;1.65;;;;;;;;;;5086195;28;20231;-51
2023/05/19 14:41:04;;;;;;;1.50;1.27;;;;;;;;;;5085689;28;20241;-53
2023/05/19 14:43:30;;;;;;;2.45;1.50;;;;;;;;;;5088258;27;20265;-52
2023/05/19 14:45:57;;;;;;;5.47;2.40;;;;;;;;;;5083333;28;20231;-53